createdAt,value
2017-11-27T00:00:00.997Z,21.77
2017-11-27T00:00:33.034Z,21.83
2017-11-27T00:01:05.065Z,21.85
2017-11-27T00:01:37.067Z,21.82
2017-11-27T00:02:09.114Z,21.83
2017-11-27T00:02:41.175Z,21.86
2017-11-27T00:03:13.189Z,21.83
2017-11-27T00:03:45.203Z,21.82
2017-11-27T00:04:17.258Z,21.8
2017-11-27T00:04:49.298Z,21.78
2017-11-27T00:05:21.313Z,21.8
2017-11-27T00:05:53.325Z,21.82
2017-11-27T00:06:25.418Z,21.82
2017-11-27T00:06:57.410Z,21.8
2017-11-27T00:07:30.120Z,21.83
2017-11-27T00:08:02.152Z,21.82
2017-11-27T00:08:34.201Z,21.73
2017-11-27T00:09:06.212Z,21.76
2017-11-27T00:09:38.231Z,21.83
2017-11-27T00:10:10.203Z,21.82
2017-11-27T00:10:42.243Z,21.82
2017-11-27T00:11:14.207Z,21.8
2017-11-27T00:11:46.227Z,21.8
2017-11-27T00:12:18.380Z,21.8
2017-11-27T00:12:50.420Z,21.83
2017-11-27T00:13:22.442Z,21.78
2017-11-27T00:13:54.449Z,21.86
2017-11-27T00:14:26.467Z,21.83
2017-11-27T00:14:58.484Z,21.86
2017-11-27T00:15:30.522Z,21.78
2017-11-27T00:16:02.517Z,21.76
2017-11-27T00:16:34.594Z,21.82
2017-11-27T00:17:06.583Z,21.82
2017-11-27T00:17:38.682Z,21.83
2017-11-27T00:18:10.713Z,21.83
2017-11-27T00:18:42.746Z,21.82
2017-11-27T00:19:15.312Z,21.86
2017-11-27T00:19:47.350Z,21.83
2017-11-27T00:20:19.392Z,21.68
2017-11-27T00:20:51.397Z,21.78
2017-11-27T00:21:23.428Z,21.83
2017-11-27T00:21:55.536Z,21.8
2017-11-27T00:22:28.393Z,21.82
2017-11-27T00:23:00.422Z,21.73
2017-11-27T00:23:32.420Z,21.83
2017-11-27T00:24:04.464Z,21.8
2017-11-27T00:24:36.533Z,21.78
2017-11-27T00:25:08.569Z,21.83
2017-11-27T00:25:40.602Z,21.78
2017-11-27T00:26:12.645Z,21.86
2017-11-27T00:26:44.635Z,21.74
2017-11-27T00:27:16.648Z,21.82
2017-11-27T00:27:48.707Z,21.86
2017-11-27T00:28:20.754Z,21.78
2017-11-27T00:28:52.764Z,21.86
2017-11-27T00:29:24.935Z,21.78
2017-11-27T00:29:56.953Z,21.76
2017-11-27T00:30:28.963Z,21.8
2017-11-27T00:31:01.012Z,21.83
2017-11-27T00:31:33.023Z,21.86
2017-11-27T00:32:05.647Z,21.83
2017-11-27T00:32:37.691Z,21.83
2017-11-27T00:33:09.690Z,21.82
2017-11-27T00:33:41.736Z,21.82
2017-11-27T00:34:13.841Z,21.78
2017-11-27T00:34:45.849Z,21.82
2017-11-27T00:35:17.894Z,21.82
2017-11-27T00:35:49.934Z,21.78
2017-11-27T00:36:21.912Z,21.89
2017-11-27T00:36:53.927Z,21.89
2017-11-27T00:37:25.946Z,21.78
2017-11-27T00:37:57.979Z,21.93
2017-11-27T00:38:29.982Z,21.77
2017-11-27T00:39:01.990Z,21.89
2017-11-27T00:39:34.013Z,21.9
2017-11-27T00:40:06.052Z,21.9
2017-11-27T00:40:38.125Z,21.86
2017-11-27T00:41:10.149Z,21.9
2017-11-27T00:41:42.177Z,21.94
2017-11-27T00:42:14.195Z,21.97
2017-11-27T00:42:46.199Z,21.94
2017-11-27T00:43:18.247Z,21.93
2017-11-27T00:43:50.349Z,21.92
2017-11-27T00:44:22.463Z,21.99
2017-11-27T00:44:54.501Z,21.93
2017-11-27T00:45:26.536Z,21.94
2017-11-27T00:45:58.634Z,21.94
2017-11-27T00:46:30.757Z,22
2017-11-27T00:47:02.763Z,21.96
2017-11-27T00:47:34.789Z,21.94
2017-11-27T00:48:06.825Z,21.96
2017-11-27T00:48:38.862Z,22.04
2017-11-27T00:49:10.886Z,22.02
2017-11-27T00:49:42.926Z,22.09
2017-11-27T00:50:14.908Z,22.04
2017-11-27T00:50:46.945Z,22.04
2017-11-27T00:51:19.006Z,22.02
2017-11-27T00:51:51.618Z,21.99
2017-11-27T00:52:23.705Z,21.99
2017-11-27T00:52:56.544Z,22.05
2017-11-27T00:53:28.551Z,22.05
2017-11-27T00:54:00.574Z,22.14
2017-11-27T00:54:32.614Z,22.05
2017-11-27T00:55:04.695Z,22.07
2017-11-27T00:55:36.729Z,22.07
2017-11-27T00:56:08.777Z,22.07
2017-11-27T00:56:40.820Z,22.11
2017-11-27T00:57:12.867Z,22.08
2017-11-27T00:57:44.902Z,22.07
2017-11-27T00:58:16.924Z,22.14
2017-11-27T00:58:48.932Z,22.11
2017-11-27T00:59:20.973Z,22.14
2017-11-27T00:59:53.002Z,22.11
2017-11-27T01:00:25.042Z,22.18
2017-11-27T01:00:57.069Z,22.18
2017-11-27T01:01:29.092Z,22.07
2017-11-27T01:02:01.156Z,22.24
2017-11-27T01:02:33.229Z,22.08
2017-11-27T01:03:05.327Z,22.15
2017-11-27T01:03:37.328Z,22.22
2017-11-27T01:04:09.410Z,22.2
2017-11-27T01:04:41.446Z,22.22
2017-11-27T01:05:13.454Z,22.08
2017-11-27T01:05:45.485Z,22.14
2017-11-27T01:06:17.648Z,22.14
2017-11-27T01:06:49.756Z,22.16
2017-11-27T01:07:21.749Z,22.18
2017-11-27T01:07:53.789Z,22.2
2017-11-27T01:08:25.883Z,22.09
2017-11-27T01:08:57.904Z,22.23
2017-11-27T01:09:29.938Z,22.11
2017-11-27T01:10:01.985Z,22.23
2017-11-27T01:10:34.035Z,22.23
2017-11-27T01:11:06.066Z,22.27
2017-11-27T01:11:38.206Z,22.22
2017-11-27T01:12:10.218Z,22.2
2017-11-27T01:12:42.249Z,22.26
2017-11-27T01:13:14.275Z,22.27
2017-11-27T01:13:46.311Z,22.26
2017-11-27T01:14:18.366Z,22.29
2017-11-27T01:14:50.391Z,22.24
2017-11-27T01:15:22.482Z,22.29
2017-11-27T01:15:54.479Z,22.27
2017-11-27T01:16:26.521Z,22.26
2017-11-27T01:16:58.546Z,22.2
2017-11-27T01:17:30.641Z,22.23
2017-11-27T01:18:02.631Z,22.26
2017-11-27T01:18:34.672Z,22.24
2017-11-27T01:19:06.694Z,22.22
2017-11-27T01:19:38.768Z,22.16
2017-11-27T01:20:10.777Z,22.2
2017-11-27T01:20:42.819Z,22.29
2017-11-27T01:21:14.842Z,22.29
2017-11-27T01:21:46.855Z,22.3
2017-11-27T01:22:18.900Z,22.27
2017-11-27T01:22:50.992Z,22.24
2017-11-27T01:23:23.101Z,22.36
2017-11-27T01:23:55.116Z,22.27
2017-11-27T01:24:27.129Z,22.34
2017-11-27T01:24:59.218Z,22.33
2017-11-27T01:25:31.370Z,22.36
2017-11-27T01:26:03.416Z,22.33
2017-11-27T01:26:35.448Z,22.38
2017-11-27T01:27:07.513Z,22.34
2017-11-27T01:27:40.149Z,22.38
2017-11-27T01:28:12.181Z,22.42
2017-11-27T01:28:44.224Z,22.38
2017-11-27T01:29:16.362Z,22.41
2017-11-27T01:29:48.388Z,22.36
2017-11-27T01:30:20.432Z,22.33
2017-11-27T01:30:52.454Z,22.33
2017-11-27T01:31:24.601Z,22.36
2017-11-27T01:31:56.622Z,22.44
2017-11-27T01:32:28.639Z,22.41
2017-11-27T01:33:00.684Z,22.39
2017-11-27T01:33:32.703Z,22.45
2017-11-27T01:34:04.755Z,22.51
2017-11-27T01:34:36.772Z,22.48
2017-11-27T01:35:08.860Z,22.48
2017-11-27T01:35:40.849Z,22.48
2017-11-27T01:36:12.871Z,22.54
2017-11-27T01:36:44.888Z,22.49
2017-11-27T01:37:16.917Z,22.51
2017-11-27T01:37:48.952Z,22.51
2017-11-27T01:38:21.742Z,22.49
2017-11-27T01:38:53.765Z,22.48
2017-11-27T01:39:25.849Z,22.51
2017-11-27T01:39:57.903Z,22.48
2017-11-27T01:40:29.904Z,22.54
2017-11-27T01:41:01.900Z,22.44
2017-11-27T01:41:34.566Z,22.51
2017-11-27T01:42:06.566Z,22.48
2017-11-27T01:42:38.562Z,22.57
2017-11-27T01:43:11.266Z,22.55
2017-11-27T01:43:43.298Z,22.45
2017-11-27T01:44:15.427Z,22.57
2017-11-27T01:44:47.450Z,22.59
2017-11-27T01:45:19.442Z,22.6
2017-11-27T01:45:51.465Z,22.49
2017-11-27T01:46:24.043Z,22.55
2017-11-27T01:46:56.084Z,22.6
2017-11-27T01:47:28.086Z,22.49
2017-11-27T01:48:00.123Z,22.61
2017-11-27T01:48:32.158Z,22.57
2017-11-27T01:49:04.178Z,22.61
2017-11-27T01:49:36.938Z,22.61
2017-11-27T01:50:08.947Z,22.66
2017-11-27T01:50:40.979Z,22.6
2017-11-27T01:51:12.987Z,22.64
2017-11-27T01:51:45.106Z,22.6
2017-11-27T01:52:17.280Z,22.66
2017-11-27T01:52:49.324Z,22.63
2017-11-27T01:53:21.334Z,22.63
2017-11-27T01:53:53.358Z,22.66
2017-11-27T01:54:25.468Z,22.57
2017-11-27T01:54:57.504Z,22.55
2017-11-27T01:55:29.544Z,22.61
2017-11-27T01:56:01.600Z,22.57
2017-11-27T01:56:33.672Z,22.59
2017-11-27T01:57:05.693Z,22.6
2017-11-27T01:57:38.444Z,22.63
2017-11-27T01:58:11.171Z,22.63
2017-11-27T01:58:43.213Z,22.63
2017-11-27T01:59:15.273Z,22.61
2017-11-27T01:59:47.319Z,22.59
2017-11-27T02:00:19.333Z,22.69
2017-11-27T02:00:51.373Z,22.66
2017-11-27T02:01:23.401Z,22.69
2017-11-27T02:01:55.428Z,22.71
2017-11-27T02:02:27.460Z,22.66
2017-11-27T02:02:59.489Z,22.71
2017-11-27T02:03:31.660Z,22.71
2017-11-27T02:04:04.582Z,22.7
2017-11-27T02:04:36.695Z,22.69
2017-11-27T02:05:08.724Z,22.73
2017-11-27T02:05:40.687Z,22.73
2017-11-27T02:06:12.712Z,22.79
2017-11-27T02:06:44.724Z,22.7
2017-11-27T02:07:16.779Z,22.71
2017-11-27T02:07:48.859Z,22.76
2017-11-27T02:08:20.869Z,22.76
2017-11-27T02:08:52.901Z,22.73
2017-11-27T02:09:24.920Z,22.73
2017-11-27T02:09:56.939Z,22.71
2017-11-27T02:10:28.961Z,22.76
2017-11-27T02:11:01.022Z,22.73
2017-11-27T02:11:33.058Z,22.81
2017-11-27T02:12:05.062Z,22.7
2017-11-27T02:12:37.091Z,22.75
2017-11-27T02:13:09.769Z,22.69
2017-11-27T02:13:41.768Z,22.79
2017-11-27T02:14:14.457Z,22.73
2017-11-27T02:14:46.485Z,22.82
2017-11-27T02:15:18.499Z,22.78
2017-11-27T02:15:50.477Z,22.85
2017-11-27T02:16:22.503Z,22.73
2017-11-27T02:16:54.472Z,22.78
2017-11-27T02:17:26.654Z,22.67
2017-11-27T02:17:58.692Z,22.82
2017-11-27T02:18:30.731Z,22.78
2017-11-27T02:19:02.817Z,22.79
2017-11-27T02:19:34.825Z,22.79
2017-11-27T02:20:06.822Z,22.81
2017-11-27T02:20:38.876Z,22.84
2017-11-27T02:21:10.971Z,22.84
2017-11-27T02:21:42.962Z,22.85
2017-11-27T02:22:14.992Z,22.82
2017-11-27T02:22:47.001Z,22.82
2017-11-27T02:23:19.044Z,22.84
2017-11-27T02:23:51.089Z,22.79
2017-11-27T02:24:23.128Z,22.75
2017-11-27T02:24:55.151Z,22.86
2017-11-27T02:25:27.205Z,22.76
2017-11-27T02:25:59.229Z,22.84
2017-11-27T02:26:31.293Z,22.82
2017-11-27T02:27:03.314Z,22.85
2017-11-27T02:27:35.334Z,22.76
2017-11-27T02:28:07.350Z,22.82
2017-11-27T02:28:39.392Z,22.71
2017-11-27T02:29:11.439Z,22.84
2017-11-27T02:29:43.476Z,22.82
2017-11-27T02:30:15.546Z,22.7
2017-11-27T02:30:47.558Z,22.75
2017-11-27T02:31:19.596Z,22.79
2017-11-27T02:31:51.621Z,22.76
2017-11-27T02:32:23.670Z,22.7
2017-11-27T02:32:55.679Z,22.82
2017-11-27T02:33:27.717Z,22.66
2017-11-27T02:33:59.740Z,22.69
2017-11-27T02:34:31.784Z,22.69
2017-11-27T02:35:03.833Z,22.76
2017-11-27T02:35:35.865Z,22.71
2017-11-27T02:36:07.903Z,22.7
2017-11-27T02:36:39.928Z,22.71
2017-11-27T02:37:12.026Z,22.79
2017-11-27T02:37:44.056Z,22.79
2017-11-27T02:38:16.139Z,22.73
2017-11-27T02:38:48.211Z,22.85
2017-11-27T02:39:20.187Z,22.73
2017-11-27T02:39:52.225Z,22.85
2017-11-27T02:40:24.288Z,22.82
2017-11-27T02:40:56.411Z,22.75
2017-11-27T02:41:28.458Z,22.69
2017-11-27T02:42:00.500Z,22.75
2017-11-27T02:42:32.529Z,22.84
2017-11-27T02:43:04.531Z,22.69
2017-11-27T02:43:36.555Z,22.76
2017-11-27T02:44:08.612Z,22.75
2017-11-27T02:44:40.647Z,22.82
2017-11-27T02:45:12.660Z,22.69
2017-11-27T02:45:44.695Z,22.75
2017-11-27T02:46:16.738Z,22.67
2017-11-27T02:46:48.753Z,22.79
2017-11-27T02:47:20.806Z,22.75
2017-11-27T02:47:52.898Z,22.71
2017-11-27T02:48:24.952Z,22.73
2017-11-27T02:48:56.975Z,22.67
2017-11-27T02:49:28.994Z,22.67
2017-11-27T02:50:01.023Z,22.69
2017-11-27T02:50:33.089Z,22.61
2017-11-27T02:51:05.125Z,22.61
2017-11-27T02:51:37.186Z,22.59
2017-11-27T02:52:09.179Z,22.66
2017-11-27T02:52:41.191Z,22.67
2017-11-27T02:53:13.272Z,22.59
2017-11-27T02:53:45.290Z,22.67
2017-11-27T02:54:17.437Z,22.64
2017-11-27T02:54:49.449Z,22.59
2017-11-27T02:55:21.481Z,22.6
2017-11-27T02:55:53.542Z,22.61
2017-11-27T02:56:25.568Z,22.57
2017-11-27T02:56:57.589Z,22.59
2017-11-27T02:57:29.638Z,22.55
2017-11-27T02:58:01.648Z,22.6
2017-11-27T02:58:33.637Z,22.59
2017-11-27T02:59:05.757Z,22.6
2017-11-27T02:59:37.791Z,22.57
2017-11-27T03:00:09.822Z,22.61
2017-11-27T03:00:41.842Z,22.66
2017-11-27T03:01:14.726Z,22.59
2017-11-27T03:01:47.395Z,22.61
2017-11-27T03:02:19.421Z,22.6
2017-11-27T03:02:51.431Z,22.6
2017-11-27T03:03:23.464Z,22.63
2017-11-27T03:03:55.485Z,22.61
2017-11-27T03:04:27.532Z,22.55
2017-11-27T03:04:59.551Z,22.6
2017-11-27T03:05:31.640Z,22.59
2017-11-27T03:06:03.662Z,22.54
2017-11-27T03:06:35.694Z,22.45
2017-11-27T03:07:07.688Z,22.51
2017-11-27T03:07:39.705Z,22.51
2017-11-27T03:08:11.738Z,22.57
2017-11-27T03:08:43.750Z,22.45
2017-11-27T03:09:15.764Z,22.51
2017-11-27T03:09:47.810Z,22.48
2017-11-27T03:10:19.829Z,22.48
2017-11-27T03:10:52.516Z,22.52
2017-11-27T03:11:24.524Z,22.48
2017-11-27T03:11:56.551Z,22.48
2017-11-27T03:12:28.561Z,22.51
2017-11-27T03:13:00.608Z,22.55
2017-11-27T03:13:32.640Z,22.42
2017-11-27T03:14:04.679Z,22.51
2017-11-27T03:14:36.729Z,22.55
2017-11-27T03:15:08.791Z,22.55
2017-11-27T03:15:40.804Z,22.44
2017-11-27T03:16:12.850Z,22.45
2017-11-27T03:16:44.898Z,22.51
2017-11-27T03:17:16.918Z,22.45
2017-11-27T03:17:48.925Z,22.48
2017-11-27T03:18:20.956Z,22.46
2017-11-27T03:18:52.976Z,22.45
2017-11-27T03:19:25.009Z,22.46
2017-11-27T03:19:57.041Z,22.45
2017-11-27T03:20:29.048Z,22.52
2017-11-27T03:21:01.128Z,22.44
2017-11-27T03:21:33.275Z,22.45
2017-11-27T03:22:05.319Z,22.48
2017-11-27T03:22:37.412Z,22.52
2017-11-27T03:23:09.458Z,22.48
2017-11-27T03:23:41.512Z,22.48
2017-11-27T03:24:13.578Z,22.46
2017-11-27T03:24:45.626Z,22.52
2017-11-27T03:25:17.669Z,22.46
2017-11-27T03:25:49.658Z,22.46
2017-11-27T03:26:21.683Z,22.49
2017-11-27T03:26:53.680Z,22.49
2017-11-27T03:27:25.689Z,22.46
2017-11-27T03:27:57.721Z,22.45
2017-11-27T03:28:29.757Z,22.51
2017-11-27T03:29:01.793Z,22.54
2017-11-27T03:29:33.823Z,22.51
2017-11-27T03:30:05.837Z,22.51
2017-11-27T03:30:37.879Z,22.48
2017-11-27T03:31:09.876Z,22.46
2017-11-27T03:31:41.933Z,22.46
2017-11-27T03:32:13.960Z,22.48
2017-11-27T03:32:45.957Z,22.48
2017-11-27T03:33:18.587Z,22.48
2017-11-27T03:33:50.632Z,22.55
2017-11-27T03:34:22.758Z,22.55
2017-11-27T03:34:54.791Z,22.57
2017-11-27T03:35:26.827Z,22.48
2017-11-27T03:35:58.876Z,22.6
2017-11-27T03:36:30.888Z,22.57
2017-11-27T03:37:02.917Z,22.6
2017-11-27T03:37:34.944Z,22.57
2017-11-27T03:38:07.008Z,22.49
2017-11-27T03:38:39.027Z,22.48
2017-11-27T03:39:11.067Z,22.57
2017-11-27T03:39:43.083Z,22.57
2017-11-27T03:40:15.090Z,22.63
2017-11-27T03:40:47.129Z,22.59
2017-11-27T03:41:19.165Z,22.55
2017-11-27T03:41:51.200Z,22.61
2017-11-27T03:42:23.213Z,22.63
2017-11-27T03:42:55.251Z,22.46
2017-11-27T03:43:27.363Z,22.55
2017-11-27T03:43:59.360Z,22.64
2017-11-27T03:44:31.389Z,22.52
2017-11-27T03:45:03.422Z,22.52
2017-11-27T03:45:35.477Z,22.55
2017-11-27T03:46:07.508Z,22.54
2017-11-27T03:46:39.557Z,22.57
2017-11-27T03:47:11.619Z,22.57
2017-11-27T03:47:43.649Z,22.66
2017-11-27T03:48:15.662Z,22.54
2017-11-27T03:48:47.675Z,22.57
2017-11-27T03:49:19.680Z,22.59
2017-11-27T03:49:51.721Z,22.6
2017-11-27T03:50:23.776Z,22.57
2017-11-27T03:50:55.819Z,22.6
2017-11-27T03:51:27.844Z,22.61
2017-11-27T03:51:59.867Z,22.66
2017-11-27T03:52:31.910Z,22.63
2017-11-27T03:53:03.906Z,22.66
2017-11-27T03:53:35.963Z,22.55
2017-11-27T03:54:07.979Z,22.61
2017-11-27T03:54:39.968Z,22.59
2017-11-27T03:55:11.989Z,22.64
2017-11-27T03:55:44.046Z,22.64
2017-11-27T03:56:16.104Z,22.63
2017-11-27T03:56:48.132Z,22.66
2017-11-27T03:57:20.167Z,22.61
2017-11-27T03:57:52.165Z,22.64
2017-11-27T03:58:24.175Z,22.61
2017-11-27T03:58:56.192Z,22.63
2017-11-27T03:59:28.226Z,22.6
2017-11-27T04:00:00.302Z,22.55
2017-11-27T04:00:32.341Z,22.63
2017-11-27T04:01:04.357Z,22.64
2017-11-27T04:01:36.358Z,22.59
2017-11-27T04:02:08.378Z,22.6
2017-11-27T04:02:40.448Z,22.66
2017-11-27T04:03:12.573Z,22.66
2017-11-27T04:03:44.617Z,22.61
2017-11-27T04:04:16.641Z,22.6
2017-11-27T04:04:48.668Z,22.61
2017-11-27T04:05:20.659Z,22.63
2017-11-27T04:05:52.711Z,22.64
2017-11-27T04:06:24.732Z,22.55
2017-11-27T04:06:56.816Z,22.69
2017-11-27T04:07:28.830Z,22.61
2017-11-27T04:08:00.861Z,22.63
2017-11-27T04:08:32.853Z,22.63
2017-11-27T04:09:04.864Z,22.64
2017-11-27T04:09:36.921Z,22.64
2017-11-27T04:10:08.930Z,22.57
2017-11-27T04:10:40.996Z,22.57
2017-11-27T04:11:13.041Z,22.61
2017-11-27T04:11:45.051Z,22.57
2017-11-27T04:12:17.064Z,22.63
2017-11-27T04:12:49.109Z,22.63
2017-11-27T04:13:21.130Z,22.6
2017-11-27T04:13:53.151Z,22.59
2017-11-27T04:14:25.261Z,22.63
2017-11-27T04:14:57.272Z,22.61
2017-11-27T04:15:29.286Z,22.6
2017-11-27T04:16:01.323Z,22.67
2017-11-27T04:16:33.352Z,22.59
2017-11-27T04:17:05.389Z,22.66
2017-11-27T04:17:37.433Z,22.7
2017-11-27T04:18:09.459Z,22.64
2017-11-27T04:18:41.477Z,22.6
2017-11-27T04:19:13.505Z,22.61
2017-11-27T04:19:45.542Z,22.59
2017-11-27T04:20:17.602Z,22.66
2017-11-27T04:20:49.609Z,22.69
2017-11-27T04:21:21.684Z,22.67
2017-11-27T04:21:53.715Z,22.69
2017-11-27T04:22:25.739Z,22.7
2017-11-27T04:22:57.782Z,22.67
2017-11-27T04:23:29.801Z,22.69
2017-11-27T04:24:01.820Z,22.64
2017-11-27T04:24:33.950Z,22.75
2017-11-27T04:25:05.985Z,22.7
2017-11-27T04:25:38.059Z,22.79
2017-11-27T04:26:10.102Z,22.7
2017-11-27T04:26:42.151Z,22.66
2017-11-27T04:27:14.190Z,22.75
2017-11-27T04:27:46.223Z,22.69
2017-11-27T04:28:19.051Z,22.71
2017-11-27T04:28:51.046Z,22.71
2017-11-27T04:29:23.842Z,22.73
2017-11-27T04:29:55.874Z,22.73
2017-11-27T04:30:27.881Z,22.7
2017-11-27T04:30:59.935Z,22.67
2017-11-27T04:31:31.954Z,22.7
2017-11-27T04:32:04.000Z,22.75
2017-11-27T04:32:36.035Z,22.7
2017-11-27T04:33:08.040Z,22.7
2017-11-27T04:33:40.056Z,22.71
2017-11-27T04:34:12.051Z,22.7
2017-11-27T04:34:44.064Z,22.67
2017-11-27T04:35:16.102Z,22.7
2017-11-27T04:35:48.163Z,22.75
2017-11-27T04:36:20.171Z,22.69
2017-11-27T04:36:52.293Z,22.75
2017-11-27T04:37:24.434Z,22.76
2017-11-27T04:37:56.426Z,22.7
2017-11-27T04:38:28.468Z,22.71
2017-11-27T04:39:01.361Z,22.7
2017-11-27T04:39:33.381Z,22.71
2017-11-27T04:40:05.427Z,22.7
2017-11-27T04:40:37.573Z,22.7
2017-11-27T04:41:09.665Z,22.75
2017-11-27T04:41:41.675Z,22.66
2017-11-27T04:42:13.720Z,22.71
2017-11-27T04:42:45.746Z,22.7
2017-11-27T04:43:17.757Z,22.75
2017-11-27T04:43:49.817Z,22.75
2017-11-27T04:44:21.852Z,22.7
2017-11-27T04:44:53.888Z,22.69
2017-11-27T04:45:25.917Z,22.75
2017-11-27T04:45:57.952Z,22.69
2017-11-27T04:46:30.040Z,22.73
2017-11-27T04:47:02.131Z,22.73
2017-11-27T04:47:34.148Z,22.75
2017-11-27T04:48:06.171Z,22.7
2017-11-27T04:48:38.170Z,22.7
2017-11-27T04:49:10.189Z,22.67
2017-11-27T04:49:42.236Z,22.71
2017-11-27T04:50:14.262Z,22.75
2017-11-27T04:50:46.299Z,22.71
2017-11-27T04:51:18.333Z,22.63
2017-11-27T04:51:50.421Z,22.7
2017-11-27T04:52:22.458Z,22.75
2017-11-27T04:52:54.452Z,22.73
2017-11-27T04:53:26.446Z,22.69
2017-11-27T04:53:58.457Z,22.78
2017-11-27T04:54:30.509Z,22.75
2017-11-27T04:55:02.536Z,22.71
2017-11-27T04:55:34.597Z,22.66
2017-11-27T04:56:06.623Z,22.7
2017-11-27T04:56:38.763Z,22.67
2017-11-27T04:57:10.776Z,22.79
2017-11-27T04:57:42.807Z,22.7
2017-11-27T04:58:14.954Z,22.75
2017-11-27T04:58:46.974Z,22.7
2017-11-27T04:59:19.081Z,22.7
2017-11-27T04:59:51.129Z,22.71
2017-11-27T05:00:23.148Z,22.75
2017-11-27T05:00:55.169Z,22.67
2017-11-27T05:01:27.254Z,22.76
2017-11-27T05:01:59.299Z,22.76
2017-11-27T05:02:31.331Z,22.75
2017-11-27T05:03:03.452Z,22.7
2017-11-27T05:03:35.435Z,22.75
2017-11-27T05:04:07.478Z,22.7
2017-11-27T05:04:39.475Z,22.73
2017-11-27T05:05:11.512Z,22.75
2017-11-27T05:05:43.519Z,22.76
2017-11-27T05:06:16.275Z,22.75
2017-11-27T05:06:48.326Z,22.75
2017-11-27T05:07:20.345Z,22.66
2017-11-27T05:07:52.388Z,22.7
2017-11-27T05:08:24.490Z,22.78
2017-11-27T05:08:56.582Z,22.76
2017-11-27T05:09:28.589Z,22.76
2017-11-27T05:10:00.586Z,22.7
2017-11-27T05:10:33.392Z,22.75
2017-11-27T05:11:05.408Z,22.69
2017-11-27T05:11:37.437Z,22.71
2017-11-27T05:12:09.482Z,22.66
2017-11-27T05:12:41.531Z,22.71
2017-11-27T05:13:13.574Z,22.76
2017-11-27T05:13:45.583Z,22.75
2017-11-27T05:14:17.584Z,22.69
2017-11-27T05:14:49.632Z,22.78
2017-11-27T05:15:21.692Z,22.75
2017-11-27T05:15:53.713Z,22.73
2017-11-27T05:16:25.730Z,22.75
2017-11-27T05:16:57.782Z,22.76
2017-11-27T05:17:29.837Z,22.71
2017-11-27T05:18:01.875Z,22.69
2017-11-27T05:18:33.895Z,22.73
2017-11-27T05:19:05.924Z,22.71
2017-11-27T05:19:37.948Z,22.67
2017-11-27T05:20:09.968Z,22.73
2017-11-27T05:20:42.003Z,22.71
2017-11-27T05:21:14.030Z,22.7
2017-11-27T05:21:46.044Z,22.73
2017-11-27T05:22:18.181Z,22.76
2017-11-27T05:22:50.178Z,22.7
2017-11-27T05:23:22.165Z,22.69
2017-11-27T05:23:54.220Z,22.73
2017-11-27T05:24:26.254Z,22.71
2017-11-27T05:24:58.312Z,22.73
2017-11-27T05:25:30.341Z,22.71
2017-11-27T05:26:02.352Z,22.69
2017-11-27T05:26:34.378Z,22.76
2017-11-27T05:27:06.406Z,22.7
2017-11-27T05:27:38.438Z,22.73
2017-11-27T05:28:10.493Z,22.7
2017-11-27T05:28:42.510Z,22.78
2017-11-27T05:29:14.537Z,22.69
2017-11-27T05:29:46.559Z,22.69
2017-11-27T05:30:18.641Z,22.7
2017-11-27T05:30:50.643Z,22.71
2017-11-27T05:31:22.678Z,22.75
2017-11-27T05:31:54.711Z,22.75
2017-11-27T05:32:26.732Z,22.75
2017-11-27T05:32:58.745Z,22.76
2017-11-27T05:33:30.779Z,22.71
2017-11-27T05:34:02.822Z,22.71
2017-11-27T05:34:34.860Z,22.7
2017-11-27T05:35:06.906Z,22.73
2017-11-27T05:35:38.911Z,22.73
2017-11-27T05:36:10.936Z,22.71
2017-11-27T05:36:42.975Z,22.69
2017-11-27T05:37:15.046Z,22.76
2017-11-27T05:37:47.073Z,22.75
2017-11-27T05:38:19.114Z,22.71
2017-11-27T05:38:51.161Z,22.69
2017-11-27T05:39:23.184Z,22.73
2017-11-27T05:39:55.215Z,22.66
2017-11-27T05:40:27.223Z,22.76
2017-11-27T05:40:59.275Z,22.69
2017-11-27T05:41:31.318Z,22.71
2017-11-27T05:42:03.337Z,22.75
2017-11-27T05:42:35.350Z,22.73
2017-11-27T05:43:07.377Z,22.66
2017-11-27T05:43:39.372Z,22.71
2017-11-27T05:44:11.399Z,22.7
2017-11-27T05:44:43.550Z,22.76
2017-11-27T05:45:15.601Z,22.71
2017-11-27T05:45:47.595Z,22.66
2017-11-27T05:46:19.722Z,22.64
2017-11-27T05:46:51.816Z,22.71
2017-11-27T05:47:23.837Z,22.64
2017-11-27T05:47:55.854Z,22.69
2017-11-27T05:48:27.905Z,22.64
2017-11-27T05:48:59.934Z,22.64
2017-11-27T05:49:31.970Z,22.61
2017-11-27T05:50:04.000Z,22.59
2017-11-27T05:50:36.033Z,22.57
2017-11-27T05:51:08.064Z,22.6
2017-11-27T05:51:40.114Z,22.63
2017-11-27T05:52:12.140Z,22.61
2017-11-27T05:52:44.175Z,22.54
2017-11-27T05:53:16.169Z,22.63
2017-11-27T05:53:48.265Z,22.57
2017-11-27T05:54:20.281Z,22.63
2017-11-27T05:54:52.299Z,22.63
2017-11-27T05:55:24.313Z,22.61
2017-11-27T05:55:56.311Z,22.6
2017-11-27T05:56:28.381Z,22.63
2017-11-27T05:57:00.433Z,22.59
2017-11-27T05:57:32.464Z,22.61
2017-11-27T05:58:04.489Z,22.66
2017-11-27T05:58:36.577Z,22.57
2017-11-27T05:59:08.597Z,22.66
2017-11-27T05:59:40.641Z,22.66
2017-11-27T06:00:13.489Z,22.59
2017-11-27T06:00:45.477Z,22.59
2017-11-27T06:01:17.516Z,22.66
2017-11-27T06:01:49.520Z,22.63
2017-11-27T06:02:21.550Z,22.59
2017-11-27T06:02:53.595Z,22.61
2017-11-27T06:03:25.650Z,22.61
2017-11-27T06:03:57.685Z,22.61
2017-11-27T06:04:29.729Z,22.66
2017-11-27T06:05:01.767Z,22.63
2017-11-27T06:05:33.834Z,22.63
2017-11-27T06:06:05.853Z,22.59
2017-11-27T06:06:37.907Z,22.6
2017-11-27T06:07:10.019Z,22.59
2017-11-27T06:07:42.046Z,22.61
2017-11-27T06:08:14.082Z,22.63
2017-11-27T06:08:46.105Z,22.59
2017-11-27T06:09:18.128Z,22.6
2017-11-27T06:09:50.164Z,22.6
2017-11-27T06:10:22.182Z,22.57
2017-11-27T06:10:54.196Z,22.63
2017-11-27T06:11:30.140Z,22.59
2017-11-27T06:12:02.345Z,22.59
2017-11-27T06:12:34.362Z,22.55
2017-11-27T06:13:06.369Z,22.61
2017-11-27T06:13:38.403Z,22.55
2017-11-27T06:14:10.407Z,22.61
2017-11-27T06:14:42.443Z,22.63
2017-11-27T06:15:14.468Z,22.63
2017-11-27T06:15:46.517Z,22.6
2017-11-27T06:16:18.535Z,22.66
2017-11-27T06:16:50.570Z,22.61
2017-11-27T06:17:22.644Z,22.66
2017-11-27T06:17:54.711Z,22.6
2017-11-27T06:18:26.746Z,22.57
2017-11-27T06:18:58.779Z,22.59
2017-11-27T06:19:30.821Z,22.6
2017-11-27T06:20:02.827Z,22.55
2017-11-27T06:20:34.849Z,22.59
2017-11-27T06:21:06.868Z,22.59
2017-11-27T06:21:38.888Z,22.61
2017-11-27T06:22:10.931Z,22.61
2017-11-27T06:22:43.005Z,22.57
2017-11-27T06:23:15.019Z,22.63
2017-11-27T06:23:47.053Z,22.61
2017-11-27T06:24:19.057Z,22.69
2017-11-27T06:24:51.116Z,22.67
2017-11-27T06:25:23.135Z,22.6
2017-11-27T06:25:55.146Z,22.63
2017-11-27T06:26:27.174Z,22.59
2017-11-27T06:26:59.214Z,22.59
2017-11-27T06:27:31.210Z,22.57
2017-11-27T06:28:03.260Z,22.6
2017-11-27T06:28:35.248Z,22.59
2017-11-27T06:29:07.259Z,22.66
2017-11-27T06:29:39.279Z,22.55
2017-11-27T06:30:11.305Z,22.57
2017-11-27T06:30:43.347Z,22.54
2017-11-27T06:31:15.369Z,22.69
2017-11-27T06:31:47.354Z,22.55
2017-11-27T06:32:19.341Z,22.59
2017-11-27T06:32:51.377Z,22.61
2017-11-27T06:33:23.399Z,22.61
2017-11-27T06:33:55.433Z,22.59
2017-11-27T06:34:27.426Z,22.59
2017-11-27T06:34:59.455Z,22.61
2017-11-27T06:35:31.503Z,22.61
2017-11-27T06:36:03.601Z,22.61
2017-11-27T06:36:35.743Z,22.59
2017-11-27T06:37:07.892Z,22.61
2017-11-27T06:37:39.936Z,22.61
2017-11-27T06:38:11.934Z,22.63
2017-11-27T06:38:44.022Z,22.61
2017-11-27T06:39:16.048Z,22.63
2017-11-27T06:39:48.082Z,22.59
2017-11-27T06:40:20.167Z,22.66
2017-11-27T06:40:52.162Z,22.66
2017-11-27T06:41:24.155Z,22.61
2017-11-27T06:41:56.231Z,22.66
2017-11-27T06:42:28.354Z,22.66
2017-11-27T06:43:00.365Z,22.63
2017-11-27T06:43:32.425Z,22.61
2017-11-27T06:44:04.505Z,22.63
2017-11-27T06:44:36.523Z,22.63
2017-11-27T06:45:08.565Z,22.66
2017-11-27T06:45:40.590Z,22.64
2017-11-27T06:46:12.624Z,22.61
2017-11-27T06:46:44.631Z,22.63
2017-11-27T06:47:16.662Z,22.61
2017-11-27T06:47:49.136Z,22.61
2017-11-27T06:48:21.331Z,22.66
2017-11-27T06:48:53.354Z,22.59
2017-11-27T06:49:25.425Z,22.59
2017-11-27T06:49:57.475Z,22.61
2017-11-27T06:50:30.265Z,22.63
2017-11-27T06:51:02.323Z,22.59
2017-11-27T06:51:34.356Z,22.61
2017-11-27T06:52:06.391Z,22.59
2017-11-27T06:52:38.434Z,22.57
2017-11-27T06:53:10.485Z,22.64
2017-11-27T06:53:42.532Z,22.64
